Time;durP1;ratioP1;P1;durP2;ratioP2;P2;SDS_P1;SDS_P2;PMS_P1;PMS_P2;Temp;Humidity;BMP_temperature;BMP_pressure;BME280_temperature;BME280_humidity;BME280_pressure;Samples;Min_cycle;Max_cycle;Signal;HPM_P1;HPM_P2
2021/05/26 18:30:34;;;;;;;32.67;9.98;;;;;;;24.74;38.46;99829.47;4986435;27;20427;-63
2021/05/26 18:33:00;;;;;;;20.30;7.88;;;;;;;25.76;67.12;99833.69;4911950;28;20056;-71
2021/05/26 18:35:27;;;;;;;22.48;9.40;;;;;;;26.42;35.65;99826.28;5068617;28;20086;-78
2021/05/26 18:38:01;;;;;;;18.83;6.97;;;;;;;24.62;36.66;99831.91;5062142;28;20082;-76
2021/05/26 18:40:28;;;;;;;17.05;6.88;;;;;;;23.39;38.68;99838.09;5028964;28;20587;-77
2021/05/26 18:42:56;;;;;;;14.73;5.10;;;;;;;22.57;39.65;99843.88;5037002;28;20045;-77
2021/05/26 18:45:22;;;;;;;9.23;5.28;;;;;;;22.10;40.92;99845.22;5067746;28;20036;-74
2021/05/26 18:47:48;;;;;;;17.35;9.10;;;;;;;21.77;41.95;99846.50;5062637;28;20127;-75
2021/05/26 18:50:15;;;;;;;13.45;5.53;;;;;;;21.65;43.73;99854.19;5030430;28;20164;-73
2021/05/26 18:52:41;;;;;;;19.17;9.02;;;;;;;21.54;45.49;99846.56;5067161;28;20425;-75
2021/05/26 18:55:08;;;;;;;13.93;6.97;;;;;;;21.40;45.97;99853.63;5065383;28;20087;-74
2021/05/26 18:57:34;;;;;;;11.82;5.45;;;;;;;21.27;46.81;99854.28;5064049;28;20036;-79
2021/05/26 18:59:59;;;;;;;18.40;5.45;;;;;;;21.12;47.04;99848.88;5024442;28;151758;-76
2021/05/26 19:02:25;;;;;;;14.25;5.05;;;;;;;20.99;47.49;99856.72;5046277;28;20029;-75
2021/05/26 19:04:50;;;;;;;12.35;5.25;;;;;;;20.84;48.31;99857.50;5047895;28;20029;-77
2021/05/26 19:09:45;;;;;;;13.27;4.40;;;;;;;20.70;48.13;99852.91;5018556;27;20647;-80
2021/05/26 19:12:11;;;;;;;8.93;4.10;;;;;;;20.72;47.95;99853.56;5002419;28;20125;-77
2021/05/26 19:14:36;;;;;;;9.38;5.80;;;;;;;20.65;47.96;99850.75;5002324;28;20033;-73
2021/05/26 19:17:03;;;;;;;14.70;6.00;;;;;;;20.60;48.12;99853.16;4987309;28;20498;-76
2021/05/26 19:19:29;;;;;;;6.95;3.85;;;;;;;20.56;48.57;99849.16;4960473;28;70697;-76
2021/05/26 19:21:55;;;;;;;6.38;4.18;;;;;;;20.55;48.35;99843.94;4988485;28;20023;-73
2021/05/26 19:24:20;;;;;;;12.48;4.40;;;;;;;20.52;48.35;99843.28;4986487;28;20500;-75
2021/05/26 19:27:11;;;;;;;7.18;3.85;;;;;;;20.49;48.69;99843.63;5048979;27;20131;-75
2021/05/26 19:29:38;;;;;;;6.32;3.75;;;;;;;20.48;48.69;99841.97;4979352;28;72987;-78
2021/05/26 19:32:04;;;;;;;10.25;5.55;;;;;;;20.42;49.27;99842.69;5016443;28;20042;-76
2021/05/26 19:34:31;;;;;;;7.63;3.90;;;;;;;20.37;49.46;99839.69;5029669;28;20490;-76
2021/05/26 19:36:57;;;;;;;8.90;3.88;;;;;;;20.34;49.63;99840.06;5017530;28;20101;-75
2021/05/26 19:39:23;;;;;;;16.83;9.35;;;;;;;20.30;49.86;99838.72;5013982;28;20698;-72
2021/05/26 19:41:49;;;;;;;12.02;4.40;;;;;;;20.29;49.99;99843.28;5023342;28;20176;-76
2021/05/26 19:44:15;;;;;;;8.75;5.20;;;;;;;20.20;49.97;99844.34;5015681;28;20095;-74
2021/05/26 19:46:41;;;;;;;10.73;6.85;;;;;;;20.18;50.07;99841.81;5012021;28;20040;-75
2021/05/26 19:49:07;;;;;;;6.47;4.40;;;;;;;20.19;50.29;99840.81;5012173;28;20487;-75
2021/05/26 19:51:33;;;;;;;7.40;3.95;;;;;;;20.23;50.19;99827.03;5015859;28;20051;-77
2021/05/26 19:53:59;;;;;;;6.28;3.92;;;;;;;20.23;50.36;99819.81;4990758;28;20036;-73
2021/05/26 19:56:26;;;;;;;6.57;3.70;;;;;;;20.20;50.96;99826.38;5016113;28;20038;-75
2021/05/26 19:58:51;;;;;;;11.02;4.30;;;;;;;20.13;51.57;99820.03;5014373;28;20591;-74
2021/05/26 20:01:17;;;;;;;8.65;3.70;;;;;;;20.10;51.39;99825.78;5017177;28;20105;-73
2021/05/26 20:03:46;;;;;;;7.72;5.00;;;;;;;20.06;51.70;99821.75;5017046;28;20081;-74
2021/05/26 20:06:11;;;;;;;6.57;4.63;;;;;;;20.02;51.83;99818.56;5017320;28;20026;-71
2021/05/26 20:08:37;;;;;;;7.13;4.80;;;;;;;20.01;51.77;99821.44;5009952;28;20053;-75
2021/05/26 20:11:03;;;;;;;11.20;4.82;;;;;;;19.91;51.94;99821.66;5016694;28;20053;-73
2021/05/26 20:13:30;;;;;;;11.05;5.00;;;;;;;19.83;52.21;99822.53;5022636;28;20072;-72
2021/05/26 20:15:55;;;;;;;8.93;6.00;;;;;;;19.77;52.67;99822.38;5016479;28;20037;-71
2021/05/26 20:18:21;;;;;;;16.08;5.40;;;;;;;19.70;53.05;99827.59;5019284;28;20032;-71
2021/05/26 20:20:48;;;;;;;14.05;6.15;;;;;;;19.64;53.38;99830.97;5011206;28;20124;-72
2021/05/26 20:23:16;;;;;;;11.65;4.85;;;;;;;19.64;53.55;99831.84;5013045;28;20045;-75
2021/05/26 20:25:43;;;;;;;9.50;4.93;;;;;;;19.67;53.13;99830.66;5048302;28;20052;-73
2021/05/26 20:28:09;;;;;;;11.90;5.93;;;;;;;19.60;53.65;99833.19;5048599;28;20578;-75
2021/05/26 20:30:36;;;;;;;10.05;7.75;;;;;;;19.51;54.33;99840.41;5047304;28;20102;-76
2021/05/26 20:33:02;;;;;;;11.52;5.95;;;;;;;19.49;54.50;99841.59;5048222;28;20041;-73
2021/05/26 20:35:28;;;;;;;10.52;5.25;;;;;;;19.46;54.43;99842.78;5048678;28;20417;-75
2021/05/26 20:37:54;;;;;;;9.95;5.55;;;;;;;19.40;54.86;99846.16;5015341;28;20045;-73
2021/05/26 20:40:20;;;;;;;12.25;5.93;;;;;;;19.40;54.83;99846.16;5015110;28;20359;-74
2021/05/26 20:42:46;;;;;;;7.03;5.05;;;;;;;19.40;54.96;99848.81;5014743;28;20092;-77
2021/05/26 20:45:16;;;;;;;8.82;5.38;;;;;;;19.44;55.04;99860.91;5014775;28;20096;-75
2021/05/26 20:47:42;;;;;;;10.15;5.55;;;;;;;19.38;55.42;99866.97;5015029;28;20121;-77
2021/05/26 20:50:09;;;;;;;11.68;5.57;;;;;;;19.29;55.88;99863.47;5014759;28;20038;-71
2021/05/26 20:52:35;;;;;;;10.40;5.45;;;;;;;19.28;56.06;99856.41;5015151;28;20144;-73
2021/05/26 20:55:02;;;;;;;6.78;5.03;;;;;;;19.28;56.42;99861.78;5014947;28;20546;-74
2021/05/26 20:57:28;;;;;;;8.93;5.57;;;;;;;19.27;56.77;99856.59;5013688;28;20493;-73
2021/05/26 20:59:54;;;;;;;10.38;5.88;;;;;;;19.22;58.14;99863.28;5014937;28;20048;-74
2021/05/26 21:02:20;;;;;;;9.68;5.97;;;;;;;19.20;59.48;99869.81;5006520;28;20034;-76
2021/05/26 21:04:46;;;;;;;7.60;5.57;;;;;;;19.16;59.76;99874.69;5006462;28;20429;-73
2021/05/26 21:07:11;;;;;;;14.32;6.55;;;;;;;19.04;61.34;99894.81;5014521;28;20049;-72
2021/05/26 21:09:37;;;;;;;11.30;6.18;;;;;;;18.84;62.50;99892.44;5014848;28;20092;-75
2021/05/26 21:12:03;;;;;;;11.80;6.47;;;;;;;18.77;63.48;99891.44;5011385;28;20041;-72
2021/05/26 21:14:29;;;;;;;11.65;6.25;;;;;;;18.70;63.96;99885.88;4995072;28;20113;-72
2021/05/26 21:16:55;;;;;;;14.40;6.80;;;;;;;18.57;65.04;99881.03;4995070;28;20046;-73
2021/05/26 21:19:21;;;;;;;9.23;5.97;;;;;;;18.52;65.15;99872.66;4994760;28;20489;-71
2021/05/26 21:21:47;;;;;;;10.45;6.95;;;;;;;18.41;66.23;99875.66;4994421;28;20383;-72
2021/05/26 21:24:12;;;;;;;12.43;6.20;;;;;;;18.40;66.48;99879.31;5013979;28;20045;-72
2021/05/26 21:26:38;;;;;;;11.27;6.47;;;;;;;18.37;67.04;99866.28;5048667;28;20183;-73
2021/05/26 21:29:04;;;;;;;8.90;6.50;;;;;;;18.36;67.76;99872.63;5033538;28;20046;-75
2021/05/26 21:31:30;;;;;;;11.43;6.40;;;;;;;18.25;66.86;99874.59;5033841;28;20037;-71
2021/05/26 21:33:56;;;;;;;8.10;6.00;;;;;;;18.16;67.10;99882.78;5033475;28;20075;-72
2021/05/26 21:36:22;;;;;;;8.43;5.72;;;;;;;18.13;67.62;99883.94;5033800;28;20128;-74
2021/05/26 21:38:47;;;;;;;10.93;6.50;;;;;;;18.08;67.89;99884.44;5033949;28;20156;-74
2021/05/26 21:41:13;;;;;;;9.10;6.75;;;;;;;18.03;67.77;99891.25;5033805;28;20151;-72
2021/05/26 21:43:44;;;;;;;9.65;6.45;;;;;;;18.04;68.27;99892.94;5034300;28;20045;-72
2021/05/26 21:46:11;;;;;;;11.90;7.20;;;;;;;18.07;69.61;99889.94;5033841;28;20038;-74
2021/05/26 21:48:37;;;;;;;11.00;6.90;;;;;;;18.08;69.53;99888.94;5032685;28;20045;-72
2021/05/26 21:51:03;;;;;;;9.27;6.68;;;;;;;17.99;70.03;99879.22;5033912;28;20044;-78
2021/05/26 21:53:29;;;;;;;12.23;7.30;;;;;;;17.91;70.13;99886.16;5033578;28;20087;-72
2021/05/26 21:55:55;;;;;;;8.98;6.78;;;;;;;17.92;70.00;99893.19;5033629;28;20038;-72
2021/05/26 21:58:20;;;;;;;10.07;7.30;;;;;;;17.88;69.65;99905.22;5033440;28;20064;-73
2021/05/26 22:00:46;;;;;;;11.90;7.85;;;;;;;17.88;69.98;99902.56;5033248;28;20029;-71
2021/05/26 22:03:13;;;;;;;10.48;7.32;;;;;;;17.82;71.37;99903.19;5033213;28;20045;-76
2021/05/26 22:05:39;;;;;;;10.38;7.70;;;;;;;17.76;71.55;99904.66;5033447;28;20037;-72
2021/05/26 22:08:04;;;;;;;11.35;7.63;;;;;;;17.70;71.16;99902.63;5033358;28;20382;-75
2021/05/26 22:10:30;;;;;;;13.38;7.97;;;;;;;17.58;71.74;99891.38;5033114;28;20060;-73
2021/05/26 22:12:56;;;;;;;10.63;7.95;;;;;;;17.55;72.26;99883.66;5032902;28;20534;-72
2021/05/26 22:15:24;;;;;;;9.73;7.25;;;;;;;17.52;71.29;99878.63;5033089;28;20053;-71
2021/05/26 22:17:50;;;;;;;10.38;7.28;;;;;;;17.42;71.79;99869.84;5032916;28;20034;-73
2021/05/26 22:20:17;;;;;;;13.77;8.90;;;;;;;17.33;72.28;99860.13;5033199;28;20048;-73
2021/05/26 22:22:44;;;;;;;12.80;8.52;;;;;;;17.26;72.32;99866.09;5032906;28;20378;-72
2021/05/26 22:25:10;;;;;;;10.52;8.55;;;;;;;17.18;72.84;99879.41;5014676;28;20910;-70
2021/05/26 22:27:36;;;;;;;11.82;8.63;;;;;;;17.20;72.83;99874.75;5012811;28;20054;-70
2021/05/26 22:30:07;;;;;;;12.18;9.43;;;;;;;17.18;72.92;99873.22;5012665;28;20068;-73
2021/05/26 22:32:33;;;;;;;15.18;10.10;;;;;;;17.18;72.77;99868.72;5012816;28;20491;-71
2021/05/26 22:34:58;;;;;;;13.07;9.23;;;;;;;17.11;73.02;99881.03;5012850;28;20125;-74
2021/05/26 22:37:24;;;;;;;13.57;9.60;;;;;;;17.09;72.94;99881.16;5013077;28;20491;-69
2021/05/26 22:39:50;;;;;;;11.30;9.18;;;;;;;17.11;73.46;99867.69;5012883;28;20034;-72
2021/05/26 22:42:16;;;;;;;12.48;9.25;;;;;;;17.11;73.28;99867.69;5012419;28;20072;-71
2021/05/26 22:44:57;;;;;;;15.13;9.88;;;;;;;17.09;73.48;99869.66;5012709;28;20447;-70
2021/05/26 22:47:25;;;;;;;12.13;9.20;;;;;;;17.01;73.80;99866.91;5012665;28;20056;-71
2021/05/26 22:49:51;;;;;;;11.95;9.23;;;;;;;16.95;74.60;99869.22;5011229;28;20065;-71
2021/05/26 22:52:17;;;;;;;13.77;8.35;;;;;;;16.88;74.21;99868.13;5012791;28;20060;-70
2021/05/26 22:54:43;;;;;;;12.10;9.15;;;;;;;16.83;74.49;99859.72;5012695;28;20038;-70
2021/05/26 22:57:09;;;;;;;10.77;8.52;;;;;;;16.79;74.82;99864.53;5012303;28;20041;-71
2021/05/26 22:59:34;;;;;;;11.52;8.75;;;;;;;16.79;74.85;99856.53;5012331;28;20120;-72
2021/05/26 23:02:01;;;;;;;9.70;8.00;;;;;;;16.82;74.49;99850.03;5012294;28;20034;-71
2021/05/26 23:04:27;;;;;;;11.35;7.88;;;;;;;16.82;74.11;99844.69;5012674;28;20465;-73
2021/05/26 23:06:53;;;;;;;10.38;8.00;;;;;;;16.76;73.72;99837.28;5012404;28;20091;-69
2021/05/26 23:09:19;;;;;;;11.23;9.18;;;;;;;16.72;74.84;99833.25;5012489;28;20045;-74
2021/05/26 23:11:45;;;;;;;13.25;8.90;;;;;;;16.75;74.68;99835.66;5012955;28;20042;-70
2021/05/26 23:14:12;;;;;;;10.65;8.90;;;;;;;16.70;74.67;99838.78;5012468;28;20045;-72
2021/05/26 23:16:38;;;;;;;13.27;10.05;;;;;;;16.67;75.36;99844.41;5012360;28;20068;-71
2021/05/26 23:19:05;;;;;;;14.27;9.90;;;;;;;16.72;75.21;99855.47;5012211;28;20065;-70
2021/05/26 23:21:31;;;;;;;15.05;9.07;;;;;;;16.73;74.88;99864.31;5012202;28;20030;-72
2021/05/26 23:23:57;;;;;;;12.32;8.93;;;;;;;16.78;75.46;99867.38;5020234;28;20462;-71
2021/05/26 23:26:23;;;;;;;12.43;9.73;;;;;;;16.81;76.55;99853.72;5031864;28;20050;-69
2021/05/26 23:28:48;;;;;;;11.57;9.35;;;;;;;16.84;76.03;99858.75;5032076;28;20044;-71
2021/05/26 23:31:14;;;;;;;12.18;9.13;;;;;;;16.82;75.69;99864.25;5031699;28;20103;-70
2021/05/26 23:33:40;;;;;;;11.75;8.50;;;;;;;16.75;75.44;99868.53;5031829;28;20034;-71
2021/05/26 23:36:06;;;;;;;10.63;9.07;;;;;;;16.72;76.04;99870.66;5031811;28;20120;-72
2021/05/26 23:38:32;;;;;;;12.55;9.48;;;;;;;16.76;76.11;99870.22;5014221;28;20034;-74
2021/05/26 23:40:58;;;;;;;14.18;9.32;;;;;;;16.81;76.07;99881.25;5031798;28;20037;-71
2021/05/26 23:43:24;;;;;;;12.10;9.35;;;;;;;16.70;75.45;99883.31;5030588;28;20033;-72
2021/05/26 23:45:52;;;;;;;14.00;9.73;;;;;;;16.72;76.44;99884.00;5031579;28;20083;-70
2021/05/26 23:48:17;;;;;;;15.73;10.43;;;;;;;16.76;76.16;99885.38;5031502;28;20029;-70
2021/05/26 23:50:44;;;;;;;13.95;11.02;;;;;;;16.70;76.08;99894.00;5031778;28;20041;-70
2021/05/26 23:53:09;;;;;;;14.35;10.57;;;;;;;16.55;76.15;99893.69;5031300;28;20079;-71
2021/05/26 23:55:36;;;;;;;20.27;12.23;;;;;;;16.58;77.01;99894.22;5031859;28;20045;-71
2021/05/26 23:58:02;;;;;;;13.80;10.80;;;;;;;16.57;76.43;99891.72;5031647;28;20043;-71
